Pine Point, Maine
Current Conditions -  °F | °C
As of 1:51 PM on Thursday 30 Oct 2014 (Local Time) from KPWM Reporting Station
Broken Clouds Broken Clouds  
Wind Chill: 57°   Ceiling: 8500
Heat Index: 57°   Visibility: 10mi
Dew Point: 40°   Wind: 6mph
Humidity: 53%   Direction: 350°N
Pressure: 29.89"   Gusts: NA
Location:  43.5917°N, 70.3693°W
Report Text: KPWM 301751Z 35005KT 10SM SCT039 BKN085 14/04 A2989 RMK AO2 SLP121 T01390044 10150 20039 56007
Loading
Personal Weather Stations






























Interactive Weather Map
Tropical Storm Tracking
New forecast layout! Learn more

10-Day Weather Forecast

Advertisements
Track Severe Weather on mobile